sensor_id;sensor_type;location;lat;lon;timestamp;P1;durP1;ratioP1;P2;durP2;ratioP2
71343;SDS011;59146;43.850;25.948;2024-01-15T00:00:42;8.05;;;4.50;;
71343;SDS011;59146;43.850;25.948;2024-01-15T00:03:07;8.65;;;4.78;;
71343;SDS011;59146;43.850;25.948;2024-01-15T00:05:33;6.70;;;4.47;;
71343;SDS011;59146;43.850;25.948;2024-01-15T00:07:58;6.90;;;4.03;;
71343;SDS011;59146;43.850;25.948;2024-01-15T00:10:24;9.00;;;4.70;;
71343;SDS011;59146;43.850;25.948;2024-01-15T00:12:49;8.18;;;4.35;;
71343;SDS011;59146;43.850;25.948;2024-01-15T00:15:15;8.73;;;3.97;;
71343;SDS011;59146;43.850;25.948;2024-01-15T00:17:40;6.50;;;3.55;;
71343;SDS011;59146;43.850;25.948;2024-01-15T00:20:06;6.28;;;3.88;;
71343;SDS011;59146;43.850;25.948;2024-01-15T00:22:32;6.85;;;4.43;;
71343;SDS011;59146;43.850;25.948;2024-01-15T00:24:57;8.93;;;4.22;;
71343;SDS011;59146;43.850;25.948;2024-01-15T00:27:23;9.38;;;4.47;;
71343;SDS011;59146;43.850;25.948;2024-01-15T00:29:49;8.90;;;4.47;;
71343;SDS011;59146;43.850;25.948;2024-01-15T00:32:15;7.38;;;4.30;;
71343;SDS011;59146;43.850;25.948;2024-01-15T00:34:41;6.32;;;3.63;;
71343;SDS011;59146;43.850;25.948;2024-01-15T00:37:06;6.55;;;4.45;;
71343;SDS011;59146;43.850;25.948;2024-01-15T00:39:32;9.63;;;4.75;;
71343;SDS011;59146;43.850;25.948;2024-01-15T00:41:58;31.95;;;16.65;;
71343;SDS011;59146;43.850;25.948;2024-01-15T00:44:23;11.32;;;5.97;;
71343;SDS011;59146;43.850;25.948;2024-01-15T00:46:48;9.40;;;5.25;;
71343;SDS011;59146;43.850;25.948;2024-01-15T00:49:14;10.93;;;5.43;;
71343;SDS011;59146;43.850;25.948;2024-01-15T00:51:40;9.25;;;4.85;;
71343;SDS011;59146;43.850;25.948;2024-01-15T00:54:06;9.18;;;4.55;;
71343;SDS011;59146;43.850;25.948;2024-01-15T00:56:31;10.60;;;5.75;;
71343;SDS011;59146;43.850;25.948;2024-01-15T00:58:57;9.65;;;4.88;;
71343;SDS011;59146;43.850;25.948;2024-01-15T01:01:22;9.63;;;5.22;;
71343;SDS011;59146;43.850;25.948;2024-01-15T01:03:48;9.27;;;4.80;;
71343;SDS011;59146;43.850;25.948;2024-01-15T01:06:13;9.93;;;6.20;;
71343;SDS011;59146;43.850;25.948;2024-01-15T01:08:39;11.07;;;5.22;;
71343;SDS011;59146;43.850;25.948;2024-01-15T01:11:04;8.82;;;5.13;;
71343;SDS011;59146;43.850;25.948;2024-01-15T01:13:31;12.48;;;5.43;;
71343;SDS011;59146;43.850;25.948;2024-01-15T01:15:56;10.07;;;5.32;;
71343;SDS011;59146;43.850;25.948;2024-01-15T01:18:22;10.90;;;4.93;;
71343;SDS011;59146;43.850;25.948;2024-01-15T01:20:47;8.93;;;4.90;;
71343;SDS011;59146;43.850;25.948;2024-01-15T01:23:13;12.45;;;6.00;;
71343;SDS011;59146;43.850;25.948;2024-01-15T01:25:38;10.55;;;4.50;;
71343;SDS011;59146;43.850;25.948;2024-01-15T01:28:03;9.98;;;5.00;;
71343;SDS011;59146;43.850;25.948;2024-01-15T01:30:29;10.70;;;4.55;;
71343;SDS011;59146;43.850;25.948;2024-01-15T01:32:54;8.02;;;5.32;;
71343;SDS011;59146;43.850;25.948;2024-01-15T01:35:20;9.48;;;4.57;;
71343;SDS011;59146;43.850;25.948;2024-01-15T01:37:45;9.18;;;5.32;;
71343;SDS011;59146;43.850;25.948;2024-01-15T01:40:10;9.90;;;5.25;;
71343;SDS011;59146;43.850;25.948;2024-01-15T01:42:36;9.38;;;4.78;;
71343;SDS011;59146;43.850;25.948;2024-01-15T01:45:01;9.73;;;4.55;;
71343;SDS011;59146;43.850;25.948;2024-01-15T01:47:27;10.80;;;4.72;;
71343;SDS011;59146;43.850;25.948;2024-01-15T01:49:53;8.13;;;5.03;;
71343;SDS011;59146;43.850;25.948;2024-01-15T01:52:19;9.15;;;5.13;;
71343;SDS011;59146;43.850;25.948;2024-01-15T01:54:45;10.80;;;5.00;;
71343;SDS011;59146;43.850;25.948;2024-01-15T01:57:10;8.85;;;4.47;;
71343;SDS011;59146;43.850;25.948;2024-01-15T01:59:37;11.10;;;5.97;;
71343;SDS011;59146;43.850;25.948;2024-01-15T02:02:03;9.45;;;5.32;;
71343;SDS011;59146;43.850;25.948;2024-01-15T02:04:30;9.68;;;5.20;;
71343;SDS011;59146;43.850;25.948;2024-01-15T02:10:18;12.70;;;5.97;;
71343;SDS011;59146;43.850;25.948;2024-01-15T02:12:44;12.68;;;5.68;;
71343;SDS011;59146;43.850;25.948;2024-01-15T02:15:09;15.02;;;5.15;;
71343;SDS011;59146;43.850;25.948;2024-01-15T02:17:35;11.93;;;5.53;;
71343;SDS011;59146;43.850;25.948;2024-01-15T02:20:24;13.20;;;6.00;;
71343;SDS011;59146;43.850;25.948;2024-01-15T02:22:50;12.75;;;5.82;;
71343;SDS011;59146;43.850;25.948;2024-01-15T02:25:15;10.57;;;5.55;;
71343;SDS011;59146;43.850;25.948;2024-01-15T02:27:41;15.23;;;6.25;;
71343;SDS011;59146;43.850;25.948;2024-01-15T02:30:08;9.13;;;4.68;;
71343;SDS011;59146;43.850;25.948;2024-01-15T02:32:36;12.50;;;6.03;;
71343;SDS011;59146;43.850;25.948;2024-01-15T02:35:01;10.82;;;5.40;;
71343;SDS011;59146;43.850;25.948;2024-01-15T02:37:27;9.45;;;5.43;;
71343;SDS011;59146;43.850;25.948;2024-01-15T02:39:52;9.82;;;5.25;;
71343;SDS011;59146;43.850;25.948;2024-01-15T02:42:17;10.73;;;5.57;;
71343;SDS011;59146;43.850;25.948;2024-01-15T02:44:43;12.93;;;5.88;;
71343;SDS011;59146;43.850;25.948;2024-01-15T02:47:08;16.35;;;6.78;;
71343;SDS011;59146;43.850;25.948;2024-01-15T02:49:33;11.82;;;6.20;;
71343;SDS011;59146;43.850;25.948;2024-01-15T02:51:59;10.95;;;5.75;;
71343;SDS011;59146;43.850;25.948;2024-01-15T02:54:24;10.38;;;5.72;;
71343;SDS011;59146;43.850;25.948;2024-01-15T02:56:50;15.10;;;6.10;;
71343;SDS011;59146;43.850;25.948;2024-01-15T02:59:15;11.85;;;6.65;;
71343;SDS011;59146;43.850;25.948;2024-01-15T03:01:40;10.23;;;5.78;;
71343;SDS011;59146;43.850;25.948;2024-01-15T03:04:06;11.88;;;5.22;;
71343;SDS011;59146;43.850;25.948;2024-01-15T03:06:31;9.27;;;5.07;;
71343;SDS011;59146;43.850;25.948;2024-01-15T03:08:57;11.75;;;5.38;;
71343;SDS011;59146;43.850;25.948;2024-01-15T03:11:22;11.52;;;5.85;;
71343;SDS011;59146;43.850;25.948;2024-01-15T03:13:48;8.15;;;5.25;;
71343;SDS011;59146;43.850;25.948;2024-01-15T03:16:13;12.52;;;5.70;;
71343;SDS011;59146;43.850;25.948;2024-01-15T03:18:39;11.55;;;5.57;;
71343;SDS011;59146;43.850;25.948;2024-01-15T03:21:04;10.30;;;5.10;;
71343;SDS011;59146;43.850;25.948;2024-01-15T03:23:30;11.93;;;5.57;;
71343;SDS011;59146;43.850;25.948;2024-01-15T03:25:56;11.07;;;6.18;;
71343;SDS011;59146;43.850;25.948;2024-01-15T03:28:21;11.82;;;5.60;;
71343;SDS011;59146;43.850;25.948;2024-01-15T03:30:46;12.43;;;5.63;;
71343;SDS011;59146;43.850;25.948;2024-01-15T03:33:12;12.57;;;6.03;;
71343;SDS011;59146;43.850;25.948;2024-01-15T03:35:37;11.18;;;5.93;;
71343;SDS011;59146;43.850;25.948;2024-01-15T03:38:03;11.13;;;6.95;;
71343;SDS011;59146;43.850;25.948;2024-01-15T03:40:28;12.13;;;5.82;;
71343;SDS011;59146;43.850;25.948;2024-01-15T03:42:54;13.65;;;6.38;;
71343;SDS011;59146;43.850;25.948;2024-01-15T03:45:19;10.90;;;5.75;;
71343;SDS011;59146;43.850;25.948;2024-01-15T03:47:45;10.15;;;5.30;;
71343;SDS011;59146;43.850;25.948;2024-01-15T03:50:10;11.60;;;6.18;;
71343;SDS011;59146;43.850;25.948;2024-01-15T03:52:35;18.88;;;6.40;;
71343;SDS011;59146;43.850;25.948;2024-01-15T03:55:01;11.43;;;6.22;;
71343;SDS011;59146;43.850;25.948;2024-01-15T03:57:26;13.82;;;6.50;;
71343;SDS011;59146;43.850;25.948;2024-01-15T03:59:52;13.00;;;6.60;;
71343;SDS011;59146;43.850;25.948;2024-01-15T04:02:17;18.60;;;7.93;;
71343;SDS011;59146;43.850;25.948;2024-01-15T04:04:43;14.48;;;5.95;;
71343;SDS011;59146;43.850;25.948;2024-01-15T04:07:11;12.45;;;6.45;;
71343;SDS011;59146;43.850;25.948;2024-01-15T04:09:37;13.32;;;6.32;;
71343;SDS011;59146;43.850;25.948;2024-01-15T04:12:02;12.43;;;6.05;;
71343;SDS011;59146;43.850;25.948;2024-01-15T04:14:28;13.48;;;7.15;;
71343;SDS011;59146;43.850;25.948;2024-01-15T04:16:53;13.77;;;6.57;;
71343;SDS011;59146;43.850;25.948;2024-01-15T04:19:19;12.90;;;6.38;;
71343;SDS011;59146;43.850;25.948;2024-01-15T04:21:44;13.15;;;6.85;;
71343;SDS011;59146;43.850;25.948;2024-01-15T04:24:10;14.82;;;7.28;;
71343;SDS011;59146;43.850;25.948;2024-01-15T04:26:35;11.00;;;6.75;;
71343;SDS011;59146;43.850;25.948;2024-01-15T04:29:00;15.48;;;7.50;;
71343;SDS011;59146;43.850;25.948;2024-01-15T04:31:26;17.75;;;7.22;;
71343;SDS011;59146;43.850;25.948;2024-01-15T04:33:52;17.15;;;8.15;;
71343;SDS011;59146;43.850;25.948;2024-01-15T04:36:18;19.20;;;7.82;;
71343;SDS011;59146;43.850;25.948;2024-01-15T04:38:43;13.05;;;6.80;;
71343;SDS011;59146;43.850;25.948;2024-01-15T04:41:15;16.10;;;7.57;;
71343;SDS011;59146;43.850;25.948;2024-01-15T04:43:41;11.40;;;6.82;;
71343;SDS011;59146;43.850;25.948;2024-01-15T04:46:07;14.23;;;7.50;;
71343;SDS011;59146;43.850;25.948;2024-01-15T04:48:32;12.48;;;6.20;;
71343;SDS011;59146;43.850;25.948;2024-01-15T04:50:58;12.30;;;6.78;;
71343;SDS011;59146;43.850;25.948;2024-01-15T04:53:24;11.57;;;6.30;;
71343;SDS011;59146;43.850;25.948;2024-01-15T04:55:50;12.80;;;6.30;;
71343;SDS011;59146;43.850;25.948;2024-01-15T04:58:15;17.58;;;7.43;;
71343;SDS011;59146;43.850;25.948;2024-01-15T05:00:40;12.35;;;6.10;;
71343;SDS011;59146;43.850;25.948;2024-01-15T05:03:06;10.88;;;6.32;;
71343;SDS011;59146;43.850;25.948;2024-01-15T05:05:31;12.75;;;6.47;;
71343;SDS011;59146;43.850;25.948;2024-01-15T05:07:57;10.90;;;6.25;;
71343;SDS011;59146;43.850;25.948;2024-01-15T05:10:22;13.30;;;7.18;;
71343;SDS011;59146;43.850;25.948;2024-01-15T05:12:47;13.10;;;6.75;;
71343;SDS011;59146;43.850;25.948;2024-01-15T05:15:13;24.60;;;10.60;;
71343;SDS011;59146;43.850;25.948;2024-01-15T05:17:38;22.38;;;11.48;;
71343;SDS011;59146;43.850;25.948;2024-01-15T05:20:04;24.88;;;12.35;;
71343;SDS011;59146;43.850;25.948;2024-01-15T05:22:30;21.38;;;10.77;;
71343;SDS011;59146;43.850;25.948;2024-01-15T05:24:56;27.30;;;12.95;;
71343;SDS011;59146;43.850;25.948;2024-01-15T05:27:21;32.83;;;15.70;;
71343;SDS011;59146;43.850;25.948;2024-01-15T05:29:46;29.35;;;13.70;;
71343;SDS011;59146;43.850;25.948;2024-01-15T05:32:12;25.60;;;12.85;;
71343;SDS011;59146;43.850;25.948;2024-01-15T05:34:37;25.55;;;12.63;;
71343;SDS011;59146;43.850;25.948;2024-01-15T05:37:03;23.17;;;12.23;;
71343;SDS011;59146;43.850;25.948;2024-01-15T05:39:28;31.20;;;12.20;;
71343;SDS011;59146;43.850;25.948;2024-01-15T05:41:54;23.02;;;10.55;;
71343;SDS011;59146;43.850;25.948;2024-01-15T05:44:19;26.08;;;12.57;;
71343;SDS011;59146;43.850;25.948;2024-01-15T05:46:44;26.30;;;12.93;;
71343;SDS011;59146;43.850;25.948;2024-01-15T05:49:11;30.40;;;12.98;;
71343;SDS011;59146;43.850;25.948;2024-01-15T05:51:36;24.25;;;12.02;;
71343;SDS011;59146;43.850;25.948;2024-01-15T05:54:02;26.50;;;11.25;;
71343;SDS011;59146;43.850;25.948;2024-01-15T05:56:27;30.00;;;12.07;;
71343;SDS011;59146;43.850;25.948;2024-01-15T05:58:53;33.15;;;11.32;;
71343;SDS011;59146;43.850;25.948;2024-01-15T06:01:18;26.30;;;12.15;;
71343;SDS011;59146;43.850;25.948;2024-01-15T06:03:44;31.23;;;14.27;;
71343;SDS011;59146;43.850;25.948;2024-01-15T06:06:09;47.00;;;20.63;;
71343;SDS011;59146;43.850;25.948;2024-01-15T06:08:34;30.08;;;12.23;;
71343;SDS011;59146;43.850;25.948;2024-01-15T06:11:00;20.45;;;10.48;;
71343;SDS011;59146;43.850;25.948;2024-01-15T06:13:25;19.95;;;10.63;;
71343;SDS011;59146;43.850;25.948;2024-01-15T06:15:51;21.63;;;10.40;;
71343;SDS011;59146;43.850;25.948;2024-01-15T06:18:16;19.02;;;9.88;;
71343;SDS011;59146;43.850;25.948;2024-01-15T06:20:42;19.45;;;10.27;;
71343;SDS011;59146;43.850;25.948;2024-01-15T06:23:07;24.30;;;11.02;;
71343;SDS011;59146;43.850;25.948;2024-01-15T06:25:33;17.83;;;10.38;;
71343;SDS011;59146;43.850;25.948;2024-01-15T06:27:58;16.48;;;9.70;;
71343;SDS011;59146;43.850;25.948;2024-01-15T06:30:24;21.77;;;9.90;;
71343;SDS011;59146;43.850;25.948;2024-01-15T06:32:49;21.92;;;10.18;;
71343;SDS011;59146;43.850;25.948;2024-01-15T06:35:15;18.90;;;9.75;;
71343;SDS011;59146;43.850;25.948;2024-01-15T06:37:40;20.55;;;11.25;;
71343;SDS011;59146;43.850;25.948;2024-01-15T06:40:06;17.92;;;9.73;;
71343;SDS011;59146;43.850;25.948;2024-01-15T06:42:33;21.75;;;12.02;;
71343;SDS011;59146;43.850;25.948;2024-01-15T06:44:58;20.77;;;10.18;;
71343;SDS011;59146;43.850;25.948;2024-01-15T06:47:24;19.13;;;11.07;;
71343;SDS011;59146;43.850;25.948;2024-01-15T06:49:49;25.98;;;12.43;;
71343;SDS011;59146;43.850;25.948;2024-01-15T06:52:15;24.88;;;12.68;;
71343;SDS011;59146;43.850;25.948;2024-01-15T06:54:41;21.63;;;12.65;;
71343;SDS011;59146;43.850;25.948;2024-01-15T06:57:07;27.40;;;13.38;;
71343;SDS011;59146;43.850;25.948;2024-01-15T06:59:33;24.40;;;13.55;;
71343;SDS011;59146;43.850;25.948;2024-01-15T07:02:00;24.60;;;12.50;;
71343;SDS011;59146;43.850;25.948;2024-01-15T07:04:25;30.05;;;15.05;;
71343;SDS011;59146;43.850;25.948;2024-01-15T07:06:51;40.50;;;16.30;;
71343;SDS011;59146;43.850;25.948;2024-01-15T07:09:16;32.22;;;16.90;;
71343;SDS011;59146;43.850;25.948;2024-01-15T07:11:45;30.30;;;14.75;;
71343;SDS011;59146;43.850;25.948;2024-01-15T07:14:11;38.63;;;15.10;;
71343;SDS011;59146;43.850;25.948;2024-01-15T07:16:37;36.03;;;16.05;;
71343;SDS011;59146;43.850;25.948;2024-01-15T07:19:02;40.47;;;16.77;;
71343;SDS011;59146;43.850;25.948;2024-01-15T07:31:33;38.95;;;17.63;;
71343;SDS011;59146;43.850;25.948;2024-01-15T07:33:58;38.45;;;18.30;;
71343;SDS011;59146;43.850;25.948;2024-01-15T07:36:25;46.63;;;19.65;;
71343;SDS011;59146;43.850;25.948;2024-01-15T07:38:50;46.15;;;18.23;;
71343;SDS011;59146;43.850;25.948;2024-01-15T07:41:16;43.15;;;20.45;;
71343;SDS011;59146;43.850;25.948;2024-01-15T07:43:41;50.92;;;22.00;;
71343;SDS011;59146;43.850;25.948;2024-01-15T07:46:07;35.38;;;17.95;;
71343;SDS011;59146;43.850;25.948;2024-01-15T07:48:32;49.58;;;18.60;;
71343;SDS011;59146;43.850;25.948;2024-01-15T07:50:58;34.28;;;19.52;;
71343;SDS011;59146;43.850;25.948;2024-01-15T07:53:23;51.80;;;19.98;;
71343;SDS011;59146;43.850;25.948;2024-01-15T07:55:48;53.47;;;23.25;;
71343;SDS011;59146;43.850;25.948;2024-01-15T07:58:14;46.58;;;20.08;;
71343;SDS011;59146;43.850;25.948;2024-01-15T08:00:39;36.15;;;16.80;;
71343;SDS011;59146;43.850;25.948;2024-01-15T08:03:05;38.80;;;14.80;;
71343;SDS011;59146;43.850;25.948;2024-01-15T08:05:31;31.45;;;16.67;;
71343;SDS011;59146;43.850;25.948;2024-01-15T08:07:57;41.53;;;17.15;;
71343;SDS011;59146;43.850;25.948;2024-01-15T08:10:23;35.40;;;18.30;;
71343;SDS011;59146;43.850;25.948;2024-01-15T08:12:48;42.80;;;17.58;;
71343;SDS011;59146;43.850;25.948;2024-01-15T08:15:13;39.65;;;17.38;;
71343;SDS011;59146;43.850;25.948;2024-01-15T08:17:39;41.67;;;18.67;;
71343;SDS011;59146;43.850;25.948;2024-01-15T08:20:04;58.88;;;18.55;;
71343;SDS011;59146;43.850;25.948;2024-01-15T08:22:30;50.75;;;18.98;;
71343;SDS011;59146;43.850;25.948;2024-01-15T08:24:55;69.30;;;20.17;;
71343;SDS011;59146;43.850;25.948;2024-01-15T08:27:21;44.45;;;19.60;;
71343;SDS011;59146;43.850;25.948;2024-01-15T08:29:47;50.08;;;21.38;;
71343;SDS011;59146;43.850;25.948;2024-01-15T08:32:12;68.93;;;23.90;;
71343;SDS011;59146;43.850;25.948;2024-01-15T08:34:40;71.47;;;25.88;;
71343;SDS011;59146;43.850;25.948;2024-01-15T08:37:06;62.78;;;24.02;;
71343;SDS011;59146;43.850;25.948;2024-01-15T08:39:32;58.42;;;22.10;;
71343;SDS011;59146;43.850;25.948;2024-01-15T08:41:57;55.85;;;22.30;;
71343;SDS011;59146;43.850;25.948;2024-01-15T08:44:23;48.88;;;20.90;;
71343;SDS011;59146;43.850;25.948;2024-01-15T08:46:48;51.38;;;22.88;;
71343;SDS011;59146;43.850;25.948;2024-01-15T08:49:14;53.58;;;20.60;;
71343;SDS011;59146;43.850;25.948;2024-01-15T08:51:39;42.70;;;18.30;;
71343;SDS011;59146;43.850;25.948;2024-01-15T08:54:05;39.97;;;17.90;;
71343;SDS011;59146;43.850;25.948;2024-01-15T08:56:33;42.33;;;18.45;;
71343;SDS011;59146;43.850;25.948;2024-01-15T08:58:58;48.53;;;17.60;;
71343;SDS011;59146;43.850;25.948;2024-01-15T09:01:24;36.72;;;15.38;;
71343;SDS011;59146;43.850;25.948;2024-01-15T09:03:49;37.22;;;16.60;;
71343;SDS011;59146;43.850;25.948;2024-01-15T09:06:15;41.13;;;16.95;;
71343;SDS011;59146;43.850;25.948;2024-01-15T09:08:40;25.63;;;9.52;;
71343;SDS011;59146;43.850;25.948;2024-01-15T09:11:05;20.83;;;8.77;;
71343;SDS011;59146;43.850;25.948;2024-01-15T09:13:31;15.50;;;7.80;;
71343;SDS011;59146;43.850;25.948;2024-01-15T09:15:56;19.27;;;7.93;;
71343;SDS011;59146;43.850;25.948;2024-01-15T09:18:23;27.35;;;8.82;;
71343;SDS011;59146;43.850;25.948;2024-01-15T09:20:48;28.45;;;13.52;;
71343;SDS011;59146;43.850;25.948;2024-01-15T09:23:14;22.85;;;9.90;;
71343;SDS011;59146;43.850;25.948;2024-01-15T09:25:39;25.58;;;11.48;;
71343;SDS011;59146;43.850;25.948;2024-01-15T09:28:05;163.63;;;19.73;;
71343;SDS011;59146;43.850;25.948;2024-01-15T09:30:30;48.85;;;15.20;;
71343;SDS011;59146;43.850;25.948;2024-01-15T09:32:56;32.45;;;13.25;;
71343;SDS011;59146;43.850;25.948;2024-01-15T09:35:22;25.65;;;13.30;;
71343;SDS011;59146;43.850;25.948;2024-01-15T09:37:47;24.35;;;11.48;;
71343;SDS011;59146;43.850;25.948;2024-01-15T09:40:13;32.95;;;13.43;;
71343;SDS011;59146;43.850;25.948;2024-01-15T09:42:40;27.05;;;11.75;;
71343;SDS011;59146;43.850;25.948;2024-01-15T09:45:06;26.15;;;13.10;;
71343;SDS011;59146;43.850;25.948;2024-01-15T09:47:33;21.58;;;11.27;;
71343;SDS011;59146;43.850;25.948;2024-01-15T09:49:58;17.27;;;8.40;;
71343;SDS011;59146;43.850;25.948;2024-01-15T09:52:24;28.88;;;8.65;;
71343;SDS011;59146;43.850;25.948;2024-01-15T09:54:50;28.52;;;9.38;;
71343;SDS011;59146;43.850;25.948;2024-01-15T09:57:16;22.63;;;8.25;;
71343;SDS011;59146;43.850;25.948;2024-01-15T09:59:42;17.30;;;7.53;;
71343;SDS011;59146;43.850;25.948;2024-01-15T10:02:10;21.02;;;7.53;;
71343;SDS011;59146;43.850;25.948;2024-01-15T10:04:39;23.60;;;6.47;;
71343;SDS011;59146;43.850;25.948;2024-01-15T10:07:05;10.80;;;5.82;;
71343;SDS011;59146;43.850;25.948;2024-01-15T10:09:33;15.25;;;5.85;;
71343;SDS011;59146;43.850;25.948;2024-01-15T10:11:58;13.52;;;5.75;;
71343;SDS011;59146;43.850;25.948;2024-01-15T10:14:24;18.75;;;6.28;;
71343;SDS011;59146;43.850;25.948;2024-01-15T10:16:50;14.00;;;5.65;;
71343;SDS011;59146;43.850;25.948;2024-01-15T10:19:15;12.05;;;5.63;;
71343;SDS011;59146;43.850;25.948;2024-01-15T10:21:41;10.85;;;5.47;;
71343;SDS011;59146;43.850;25.948;2024-01-15T10:24:06;9.70;;;4.55;;
71343;SDS011;59146;43.850;25.948;2024-01-15T10:26:31;8.25;;;4.40;;
71343;SDS011;59146;43.850;25.948;2024-01-15T10:29:00;11.63;;;5.57;;
71343;SDS011;59146;43.850;25.948;2024-01-15T10:31:26;11.30;;;5.13;;
71343;SDS011;59146;43.850;25.948;2024-01-15T10:33:52;10.15;;;4.32;;
71343;SDS011;59146;43.850;25.948;2024-01-15T10:36:17;14.07;;;5.35;;
71343;SDS011;59146;43.850;25.948;2024-01-15T10:38:43;6.88;;;4.18;;
71343;SDS011;59146;43.850;25.948;2024-01-15T10:41:09;7.25;;;4.15;;
71343;SDS011;59146;43.850;25.948;2024-01-15T10:43:35;8.07;;;4.00;;
71343;SDS011;59146;43.850;25.948;2024-01-15T10:46:00;11.25;;;5.43;;
71343;SDS011;59146;43.850;25.948;2024-01-15T10:48:27;7.85;;;4.72;;
71343;SDS011;59146;43.850;25.948;2024-01-15T10:50:53;6.80;;;5.25;;
71343;SDS011;59146;43.850;25.948;2024-01-15T10:53:19;8.85;;;5.65;;
71343;SDS011;59146;43.850;25.948;2024-01-15T10:55:47;9.13;;;5.43;;
71343;SDS011;59146;43.850;25.948;2024-01-15T10:58:15;12.57;;;4.68;;
71343;SDS011;59146;43.850;25.948;2024-01-15T11:00:42;8.48;;;4.45;;
71343;SDS011;59146;43.850;25.948;2024-01-15T11:03:08;10.23;;;3.97;;
71343;SDS011;59146;43.850;25.948;2024-01-15T11:05:37;8.43;;;4.72;;
71343;SDS011;59146;43.850;25.948;2024-01-15T11:08:07;13.65;;;4.40;;
71343;SDS011;59146;43.850;25.948;2024-01-15T11:10:43;21.30;;;4.55;;
71343;SDS011;59146;43.850;25.948;2024-01-15T11:16:22;8.85;;;4.07;;
71343;SDS011;59146;43.850;25.948;2024-01-15T11:18:36;10.10;;;4.97;;
71343;SDS011;59146;43.850;25.948;2024-01-15T11:23:50;7.97;;;4.43;;
71343;SDS011;59146;43.850;25.948;2024-01-15T11:26:32;11.40;;;4.53;;
71343;SDS011;59146;43.850;25.948;2024-01-15T11:29:07;7.30;;;4.30;;
71343;SDS011;59146;43.850;25.948;2024-01-15T11:34:03;7.72;;;4.18;;
71343;SDS011;59146;43.850;25.948;2024-01-15T11:37:16;6.50;;;3.35;;
71343;SDS011;59146;43.850;25.948;2024-01-15T11:41:57;11.90;;;6.00;;
71343;SDS011;59146;43.850;25.948;2024-01-15T11:44:23;11.80;;;5.75;;
71343;SDS011;59146;43.850;25.948;2024-01-15T11:46:59;8.73;;;5.70;;
71343;SDS011;59146;43.850;25.948;2024-01-15T11:52:32;9.23;;;5.00;;
71343;SDS011;59146;43.850;25.948;2024-01-15T11:55:10;6.93;;;4.78;;
71343;SDS011;59146;43.850;25.948;2024-01-15T11:57:45;15.10;;;5.13;;
71343;SDS011;59146;43.850;25.948;2024-01-15T12:00:11;8.32;;;4.65;;
71343;SDS011;59146;43.850;25.948;2024-01-15T12:02:38;11.77;;;4.60;;
71343;SDS011;59146;43.850;25.948;2024-01-15T12:05:06;7.22;;;4.25;;
71343;SDS011;59146;43.850;25.948;2024-01-15T12:07:32;7.25;;;4.13;;
71343;SDS011;59146;43.850;25.948;2024-01-15T12:09:58;5.70;;;3.83;;
71343;SDS011;59146;43.850;25.948;2024-01-15T12:12:24;6.22;;;4.28;;
71343;SDS011;59146;43.850;25.948;2024-01-15T12:14:57;7.38;;;4.30;;
71343;SDS011;59146;43.850;25.948;2024-01-15T12:17:23;6.28;;;4.30;;
71343;SDS011;59146;43.850;25.948;2024-01-15T12:19:48;11.52;;;4.53;;
71343;SDS011;59146;43.850;25.948;2024-01-15T12:22:14;9.10;;;5.45;;
71343;SDS011;59146;43.850;25.948;2024-01-15T12:24:40;7.43;;;5.20;;
71343;SDS011;59146;43.850;25.948;2024-01-15T12:27:06;8.15;;;4.65;;
71343;SDS011;59146;43.850;25.948;2024-01-15T12:29:32;8.90;;;3.67;;
71343;SDS011;59146;43.850;25.948;2024-01-15T12:31:58;9.05;;;3.35;;
71343;SDS011;59146;43.850;25.948;2024-01-15T12:34:23;8.60;;;3.78;;
71343;SDS011;59146;43.850;25.948;2024-01-15T12:36:49;5.57;;;3.15;;
71343;SDS011;59146;43.850;25.948;2024-01-15T12:39:14;5.97;;;4.28;;
71343;SDS011;59146;43.850;25.948;2024-01-15T12:41:40;7.38;;;4.35;;
71343;SDS011;59146;43.850;25.948;2024-01-15T12:44:06;8.27;;;4.30;;
71343;SDS011;59146;43.850;25.948;2024-01-15T12:46:32;10.38;;;4.10;;
71343;SDS011;59146;43.850;25.948;2024-01-15T12:48:57;6.57;;;3.72;;
71343;SDS011;59146;43.850;25.948;2024-01-15T12:51:26;13.55;;;4.57;;
71343;SDS011;59146;43.850;25.948;2024-01-15T12:53:52;8.20;;;4.25;;
71343;SDS011;59146;43.850;25.948;2024-01-15T12:56:18;6.72;;;4.35;;
71343;SDS011;59146;43.850;25.948;2024-01-15T12:58:43;6.28;;;4.03;;
71343;SDS011;59146;43.850;25.948;2024-01-15T13:01:09;8.90;;;4.10;;
71343;SDS011;59146;43.850;25.948;2024-01-15T13:03:34;12.20;;;4.78;;
71343;SDS011;59146;43.850;25.948;2024-01-15T13:06:00;7.50;;;4.35;;
71343;SDS011;59146;43.850;25.948;2024-01-15T13:08:25;9.55;;;4.22;;
71343;SDS011;59146;43.850;25.948;2024-01-15T13:10:53;7.40;;;3.97;;
71343;SDS011;59146;43.850;25.948;2024-01-15T13:13:21;5.85;;;3.70;;
71343;SDS011;59146;43.850;25.948;2024-01-15T13:15:47;9.00;;;4.28;;
71343;SDS011;59146;43.850;25.948;2024-01-15T13:18:12;9.13;;;4.20;;
71343;SDS011;59146;43.850;25.948;2024-01-15T13:20:38;7.88;;;3.60;;
71343;SDS011;59146;43.850;25.948;2024-01-15T13:23:03;8.07;;;3.65;;
71343;SDS011;59146;43.850;25.948;2024-01-15T13:25:29;7.47;;;4.00;;
71343;SDS011;59146;43.850;25.948;2024-01-15T13:27:54;9.23;;;4.20;;
71343;SDS011;59146;43.850;25.948;2024-01-15T13:30:20;9.25;;;4.00;;
71343;SDS011;59146;43.850;25.948;2024-01-15T13:32:45;8.05;;;3.95;;
71343;SDS011;59146;43.850;25.948;2024-01-15T13:35:11;8.68;;;4.07;;
71343;SDS011;59146;43.850;25.948;2024-01-15T13:37:38;7.57;;;4.30;;
71343;SDS011;59146;43.850;25.948;2024-01-15T13:40:06;7.57;;;4.40;;
71343;SDS011;59146;43.850;25.948;2024-01-15T13:42:34;8.63;;;4.85;;
71343;SDS011;59146;43.850;25.948;2024-01-15T13:45:00;11.48;;;5.15;;
71343;SDS011;59146;43.850;25.948;2024-01-15T13:47:25;9.65;;;4.70;;
71343;SDS011;59146;43.850;25.948;2024-01-15T13:49:51;8.23;;;4.65;;
71343;SDS011;59146;43.850;25.948;2024-01-15T13:52:16;10.02;;;5.15;;
71343;SDS011;59146;43.850;25.948;2024-01-15T13:54:43;10.63;;;4.68;;
71343;SDS011;59146;43.850;25.948;2024-01-15T13:57:08;10.25;;;4.80;;
71343;SDS011;59146;43.850;25.948;2024-01-15T13:59:33;11.30;;;4.28;;
71343;SDS011;59146;43.850;25.948;2024-01-15T14:01:59;30.15;;;5.78;;
71343;SDS011;59146;43.850;25.948;2024-01-15T14:04:24;9.15;;;5.95;;
71343;SDS011;59146;43.850;25.948;2024-01-15T14:06:50;14.52;;;6.93;;
71343;SDS011;59146;43.850;25.948;2024-01-15T14:09:16;10.82;;;7.05;;
71343;SDS011;59146;43.850;25.948;2024-01-15T14:11:41;12.90;;;7.32;;
71343;SDS011;59146;43.850;25.948;2024-01-15T14:14:07;11.70;;;7.30;;
71343;SDS011;59146;43.850;25.948;2024-01-15T14:16:34;12.30;;;5.93;;
71343;SDS011;59146;43.850;25.948;2024-01-15T14:18:59;14.23;;;6.10;;
71343;SDS011;59146;43.850;25.948;2024-01-15T14:21:27;10.75;;;6.25;;
71343;SDS011;59146;43.850;25.948;2024-01-15T14:23:52;11.73;;;6.70;;
71343;SDS011;59146;43.850;25.948;2024-01-15T14:26:18;17.05;;;5.82;;
71343;SDS011;59146;43.850;25.948;2024-01-15T14:28:43;18.20;;;5.75;;
71343;SDS011;59146;43.850;25.948;2024-01-15T14:31:11;19.20;;;5.30;;
71343;SDS011;59146;43.850;25.948;2024-01-15T14:33:36;17.30;;;4.38;;
71343;SDS011;59146;43.850;25.948;2024-01-15T14:36:02;24.83;;;6.10;;
71343;SDS011;59146;43.850;25.948;2024-01-15T14:38:27;24.00;;;4.32;;
71343;SDS011;59146;43.850;25.948;2024-01-15T14:40:53;8.07;;;3.60;;